Time;durP1;ratioP1;P1;durP2;ratioP2;P2;SDS_P1;SDS_P2;PMS_P1;PMS_P2;Temp;Humidity;BMP_temperature;BMP_pressure;BME280_temperature;BME280_humidity;BME280_pressure;Samples;Min_cycle;Max_cycle;Signal;HPM_P1;HPM_P2
2021/10/12 00:01:54;;;;;;;9.05;1.80;;;;;;;10.42;94.85;102511.28;5117002;28;20040;-36
2021/10/12 00:04:19;;;;;;;6.40;1.93;;;;;;;10.45;94.73;102511.75;5116696;28;20023;-36
2021/10/12 00:06:45;;;;;;;7.32;1.77;;;;;;;10.40;95.21;102508.75;5117245;28;20076;-36
2021/10/12 00:09:10;;;;;;;6.82;1.90;;;;;;;10.17;95.37;102468.28;5117167;28;20016;-36
2021/10/12 00:11:36;;;;;;;6.13;2.05;;;;;;;10.34;95.32;102497.84;5116425;28;20023;-36
2021/10/12 00:14:01;;;;;;;10.73;2.08;;;;;;;10.37;95.22;102497.47;5116604;28;20031;-36
2021/10/12 00:16:27;;;;;;;13.40;3.25;;;;;;;10.33;95.27;102488.91;5117076;28;20026;-36
2021/10/12 00:18:52;;;;;;;12.05;2.92;;;;;;;10.27;95.56;102478.84;5116654;28;20355;-36
2021/10/12 00:21:18;;;;;;;11.38;2.38;;;;;;;10.29;95.44;102495.69;5116389;28;20020;-36
2021/10/12 00:23:43;;;;;;;6.65;2.20;;;;;;;10.34;95.43;102497.84;5116104;28;20019;-36
2021/10/12 00:26:09;;;;;;;11.63;2.58;;;;;;;10.26;95.41;102482.59;5098808;28;20024;-36
2021/10/12 00:28:35;;;;;;;5.78;2.30;;;;;;;10.34;95.63;102487.03;5116584;28;20081;-36
2021/10/12 00:31:01;;;;;;;7.72;2.92;;;;;;;10.31;95.54;102480.97;5116859;28;20035;-36
2021/10/12 00:33:27;;;;;;;6.95;2.92;;;;;;;10.31;95.54;102485.56;5116062;28;20050;-36
2021/10/12 00:35:52;;;;;;;10.77;3.23;;;;;;;10.29;95.61;102479.47;5116720;28;20420;-36
2021/10/12 00:38:18;;;;;;;12.25;2.92;;;;;;;10.34;95.50;102476.22;5115868;28;20257;-36
2021/10/12 00:40:44;;;;;;;11.47;3.73;;;;;;;10.24;95.69;102465.69;5115981;28;20027;-36
2021/10/12 00:43:10;;;;;;;9.75;3.50;;;;;;;10.27;95.64;102465.31;5116326;28;20264;-36
2021/10/12 00:45:37;;;;;;;9.52;3.38;;;;;;;10.15;95.33;102453.28;5115913;28;20061;-36
2021/10/12 00:48:08;;;;;;;10.82;3.67;;;;;;;10.30;95.55;102473.06;5116892;28;20360;-36
2021/10/12 00:50:38;;;;;;;14.25;3.72;;;;;;;10.30;95.51;102473.06;5116109;28;20080;-36
2021/10/12 00:53:04;;;;;;;11.05;3.58;;;;;;;10.18;95.29;102453.75;5116041;28;20058;-36
2021/10/12 00:55:30;;;;;;;14.73;4.10;;;;;;;10.27;95.19;102468.88;5115722;28;20020;-36
2021/10/12 00:57:56;;;;;;;;;;;;;;;10.34;94.76;102458.13;5116283;28;20059;-36
2021/10/12 01:00:22;;;;;;;11.05;3.17;;;;;;;10.27;95.01;102459.91;5115719;28;19950;-36
2021/10/12 01:02:48;;;;;;;11.20;3.08;;;;;;;10.25;95.34;102453.88;5116285;28;20031;-36
2021/10/12 01:05:13;;;;;;;11.77;3.58;;;;;;;10.26;95.56;102439.31;5116151;28;20352;-36
2021/10/12 01:07:39;;;;;;;10.10;3.60;;;;;;;10.21;95.03;102439.84;5116164;28;20444;-36
2021/10/12 01:10:08;;;;;;;8.88;2.90;;;;;;;10.22;95.06;102438.00;5115394;28;20096;-36
2021/10/12 01:12:33;;;;;;;10.82;3.78;;;;;;;10.19;95.45;102425.66;5115317;28;20448;-36
2021/10/12 01:14:59;;;;;;;8.90;3.65;;;;;;;10.26;94.99;102433.91;5115471;28;20147;-36
2021/10/12 01:17:25;;;;;;;8.25;3.35;;;;;;;10.21;95.24;102439.03;5115716;28;20474;-36
2021/10/12 01:19:51;;;;;;;8.80;3.38;;;;;;;10.26;95.47;102436.63;5115357;28;20030;-36
2021/10/12 01:22:16;;;;;;;15.57;4.40;;;;;;;10.21;95.66;102433.63;5115082;28;20500;-36
2021/10/12 01:24:42;;;;;;;12.93;3.83;;;;;;;10.17;95.50;102437.72;5115199;28;20026;-36
2021/10/12 01:27:07;;;;;;;9.18;3.85;;;;;;;10.23;95.53;102428.84;5115492;28;20030;-36
2021/10/12 01:29:33;;;;;;;14.43;3.67;;;;;;;10.02;95.35;102403.44;5114786;28;20088;-36
2021/10/12 01:31:59;;;;;;;10.27;4.20;;;;;;;10.17;95.62;102425.03;5114928;28;20027;-36
2021/10/12 01:34:25;;;;;;;11.68;3.63;;;;;;;10.21;95.54;102420.09;5114752;28;20456;-36
2021/10/12 01:36:51;;;;;;;10.80;3.30;;;;;;;10.10;95.25;102407.88;5115063;28;20068;-36
2021/10/12 01:39:19;;;;;;;10.27;3.50;;;;;;;10.16;95.38;102414.44;5114863;28;20027;-36
2021/10/12 01:41:45;;;;;;;8.50;3.95;;;;;;;10.01;95.29;102387.44;5114819;28;20024;-36
2021/10/12 01:44:12;;;;;;;11.82;3.65;;;;;;;10.12;95.43;102407.72;5114767;28;20077;-36
2021/10/12 01:46:39;;;;;;;9.63;3.58;;;;;;;10.17;95.19;102403.41;5114747;28;20034;-36
2021/10/12 01:49:04;;;;;;;;;;;;;;;10.26;94.95;102404.19;5114739;28;20031;-36
2021/10/12 01:51:29;;;;;;;11.40;3.92;;;;;;;10.19;94.97;102393.22;5114612;28;19903;-36
2021/10/12 01:53:55;;;;;;;12.80;3.67;;;;;;;10.18;94.91;102388.03;5114563;28;20027;-36
2021/10/12 01:56:20;;;;;;;10.90;3.95;;;;;;;10.18;95.35;102385.31;5115095;28;20024;-36
2021/10/12 01:58:50;;;;;;;11.30;3.28;;;;;;;10.16;95.34;102382.00;5114516;28;20044;-36
2021/10/12 02:01:23;;;;;;;10.80;3.80;;;;;;;10.06;95.61;102377.72;5114429;28;20042;-36
2021/10/12 02:03:50;;;;;;;9.25;3.72;;;;;;;10.12;95.53;102391.50;5114477;28;20034;-36
2021/10/12 02:06:15;;;;;;;;;;;;;;;10.20;94.90;102376.00;5114742;28;20448;-36
2021/10/12 02:08:41;;;;;;;11.60;3.65;;;;;;;10.15;95.21;102374.88;5114548;28;19904;-36
2021/10/12 02:11:07;;;;;;;11.77;3.83;;;;;;;10.12;95.12;102376.13;5114359;28;20039;-36
2021/10/12 02:13:32;;;;;;;12.43;4.00;;;;;;;10.05;95.26;102367.06;5114414;28;20134;-36
2021/10/12 02:15:58;;;;;;;10.15;3.25;;;;;;;10.05;95.15;102367.94;5114409;28;20054;-36
2021/10/12 02:18:23;;;;;;;10.05;3.60;;;;;;;10.05;95.27;102369.78;5113783;28;20027;-36
2021/10/12 02:20:49;;;;;;;13.50;3.40;;;;;;;10.03;94.92;102372.69;5114621;28;20028;-36
2021/10/12 02:23:15;;;;;;;9.95;3.63;;;;;;;10.06;95.08;102371.47;5113987;28;20459;-36
2021/10/12 02:25:41;;;;;;;10.07;3.38;;;;;;;10.06;95.12;102383.13;5114359;28;20047;-36
2021/10/12 02:28:07;;;;;;;9.70;3.00;;;;;;;9.96;94.85;102368.25;5114393;28;20062;-36
2021/10/12 02:30:32;;;;;;;11.63;3.33;;;;;;;9.99;94.42;102370.56;5114322;28;20507;-36
2021/10/12 02:32:58;;;;;;;13.65;4.13;;;;;;;10.05;94.62;102377.88;5114240;28;20265;-36
2021/10/12 02:35:24;;;;;;;9.18;3.00;;;;;;;9.95;94.43;102361.97;5113560;28;20051;-36
2021/10/12 02:37:49;;;;;;;9.70;3.42;;;;;;;10.04;94.87;102373.53;5113924;28;20031;-36
2021/10/12 02:40:15;;;;;;;11.38;3.35;;;;;;;10.05;95.24;102369.78;5113491;28;20015;-36
2021/10/12 02:42:40;;;;;;;9.77;3.10;;;;;;;10.06;94.88;102355.25;5113534;28;20085;-36
2021/10/12 02:45:06;;;;;;;13.15;2.95;;;;;;;10.05;94.87;102350.84;5113830;28;20023;-36
2021/10/12 02:47:34;;;;;;;10.98;3.05;;;;;;;10.00;95.22;102337.09;5113461;28;20020;-36
2021/10/12 02:49:59;;;;;;;11.98;2.60;;;;;;;10.06;94.79;102347.16;5113686;28;20015;-36
2021/10/12 02:52:24;;;;;;;13.13;3.10;;;;;;;10.07;95.11;102346.94;5113784;28;20030;-36
2021/10/12 02:54:50;;;;;;;10.13;2.93;;;;;;;10.04;95.59;102341.91;5114230;28;20268;-36
2021/10/12 02:57:15;;;;;;;15.07;4.13;;;;;;;10.04;94.88;102336.50;5113444;28;20080;-36
2021/10/12 02:59:40;;;;;;;9.47;2.50;;;;;;;10.03;95.50;102342.97;5113393;28;20051;-36
2021/10/12 03:02:06;;;;;;;11.30;2.93;;;;;;;10.04;95.38;102341.91;5113977;28;20018;-36
2021/10/12 03:04:31;;;;;;;12.73;2.70;;;;;;;10.04;95.29;102332.97;5113610;28;20051;-36
2021/10/12 03:06:56;;;;;;;10.67;2.73;;;;;;;10.03;95.71;102334.84;5114178;28;20024;-36
2021/10/12 03:09:21;;;;;;;12.40;2.83;;;;;;;10.03;95.25;102325.91;5114045;28;20084;-36
2021/10/12 03:11:47;;;;;;;10.27;2.50;;;;;;;9.80;95.36;102283.66;5113793;28;20011;-36
2021/10/12 03:14:12;;;;;;;9.10;2.67;;;;;;;9.99;95.32;102314.63;5113629;28;20135;-36
2021/10/12 03:16:37;;;;;;;9.87;2.33;;;;;;;10.02;95.88;102319.66;5114101;28;20012;-36
2021/10/12 03:19:03;;;;;;;11.93;2.77;;;;;;;10.02;95.71;102311.56;5113512;28;20380;-36
2021/10/12 03:21:34;;;;;;;9.35;2.42;;;;;;;10.03;95.69;102307.81;5113141;28;20055;-36
2021/10/12 03:23:59;;;;;;;9.75;2.60;;;;;;;9.99;95.95;102306.53;5113824;28;20051;-36
2021/10/12 03:26:24;;;;;;;6.87;2.27;;;;;;;10.01;95.47;102309.06;5113151;28;20494;-36
2021/10/12 03:28:50;;;;;;;10.83;2.40;;;;;;;9.96;95.58;102297.97;5094846;28;20095;-36
2021/10/12 03:31:15;;;;;;;10.57;2.63;;;;;;;9.94;95.56;102295.44;5113918;28;20062;-36
2021/10/12 03:33:40;;;;;;;9.10;2.53;;;;;;;9.98;95.85;102294.03;5113475;28;20035;-36
2021/10/12 03:36:18;;;;;;;8.93;2.27;;;;;;;10.00;96.14;102285.75;5113333;28;20020;-36
2021/10/12 03:38:44;;;;;;;12.13;2.75;;;;;;;9.98;96.27;102277.84;5113976;28;20058;-36
2021/10/12 03:41:09;;;;;;;14.90;3.47;;;;;;;9.86;96.21;102257.75;5112995;28;20023;-36
2021/10/12 03:43:35;;;;;;;12.10;2.20;;;;;;;9.94;96.30;102260.31;5113597;28;20035;-36
2021/10/12 03:46:00;;;;;;;8.07;2.50;;;;;;;9.94;96.21;102263.03;5113154;28;20030;-36
2021/10/12 03:48:25;;;;;;;9.27;2.77;;;;;;;9.93;96.59;102266.75;5113154;28;20032;-36
2021/10/12 03:50:51;;;;;;;9.67;2.60;;;;;;;9.95;96.78;102263.84;5113197;28;20024;-36
2021/10/12 03:53:16;;;;;;;11.47;2.83;;;;;;;9.93;96.41;102260.53;5113095;28;20015;-36
2021/10/12 03:55:41;;;;;;;12.53;2.60;;;;;;;9.92;96.60;102270.50;5116641;28;20417;-36
2021/10/12 03:58:07;;;;;;;8.20;2.70;;;;;;;9.91;97.22;102276.09;5116825;28;20023;-36
2021/10/12 04:00:32;;;;;;;11.13;3.50;;;;;;;9.89;97.36;102257.38;5116782;28;20057;-36
2021/10/12 04:02:59;;;;;;;9.43;3.00;;;;;;;9.93;97.03;102255.13;5117123;28;20368;-36
2021/10/12 04:05:24;;;;;;;9.68;2.92;;;;;;;9.82;97.55;102237.56;5116701;28;20258;-36
2021/10/12 04:07:49;;;;;;;10.20;2.70;;;;;;;9.87;97.49;102254.03;5117048;28;20337;-36
2021/10/12 04:10:15;;;;;;;14.53;3.03;;;;;;;9.85;97.74;102250.66;5116625;28;20725;-36
2021/10/12 04:12:40;;;;;;;8.47;2.83;;;;;;;9.89;97.86;102253.81;5116389;28;20043;-36
2021/10/12 04:15:06;;;;;;;13.48;3.65;;;;;;;9.85;98.04;102245.25;5117030;28;20016;-36
2021/10/12 04:17:31;;;;;;;7.65;3.20;;;;;;;9.87;98.28;102243.22;5116183;28;20023;-36
2021/10/12 04:19:57;;;;;;;8.33;3.23;;;;;;;9.89;97.95;102237.63;5116450;28;20016;-36
2021/10/12 04:22:22;;;;;;;10.90;3.33;;;;;;;9.85;97.68;102239.03;5116784;28;20090;-36
2021/10/12 04:24:48;;;;;;;12.40;3.00;;;;;;;9.83;97.96;102236.53;5116434;28;20068;-36
2021/10/12 04:27:14;;;;;;;7.43;2.85;;;;;;;9.83;98.33;102233.81;5116662;28;20016;-36
2021/10/12 04:29:39;;;;;;;6.77;2.60;;;;;;;9.88;98.29;102244.06;5116331;28;20039;-36
2021/10/12 04:32:05;;;;;;;10.57;3.13;;;;;;;9.88;98.75;102244.88;5116934;28;20016;-36
2021/10/12 04:34:30;;;;;;;7.20;2.90;;;;;;;9.87;98.83;102236.97;5116686;28;20047;-36
2021/10/12 04:36:57;;;;;;;9.00;3.10;;;;;;;9.87;98.82;102234.28;5116500;28;20031;-36
2021/10/12 04:39:22;;;;;;;11.35;3.40;;;;;;;9.78;99.23;102211.94;5116317;28;20055;-36
2021/10/12 04:41:49;;;;;;;9.38;3.03;;;;;;;9.85;99.07;102212.00;5116609;28;20464;-36
2021/10/12 04:44:14;;;;;;;14.95;3.72;;;;;;;9.85;99.01;102217.41;5115905;28;20156;-36
2021/10/12 04:46:40;;;;;;;10.50;2.67;;;;;;;9.80;99.61;102215.28;5116030;28;20027;-36
2021/10/12 04:49:06;;;;;;;12.43;3.53;;;;;;;9.75;99.51;102196.13;5116333;28;20023;-36
2021/10/12 04:51:32;;;;;;;;;;;;;;;9.91;98.71;102222.06;5116814;28;20031;-36
2021/10/12 04:53:57;;;;;;;11.60;3.22;;;;;;;9.80;99.32;102204.47;5115413;28;19914;-36
2021/10/12 04:56:22;;;;;;;12.90;3.23;;;;;;;9.83;99.38;102209.50;5115749;28;20024;-36
2021/10/12 04:58:48;;;;;;;8.97;2.60;;;;;;;9.86;99.41;102216.38;5115696;28;20034;-36
2021/10/12 05:01:13;;;;;;;12.10;3.03;;;;;;;9.84;99.64;102208.47;5115434;28;20023;-36
2021/10/12 05:03:38;;;;;;;11.13;2.90;;;;;;;9.82;100.00;102197.03;5115733;28;20134;-36
2021/10/12 05:06:04;;;;;;;9.20;2.80;;;;;;;9.83;99.80;102200.56;5114850;28;20402;-36
2021/10/12 05:08:29;;;;;;;9.00;2.77;;;;;;;9.79;99.58;102197.41;5115252;28;20157;-36
2021/10/12 05:10:54;;;;;;;8.73;3.17;;;;;;;9.83;99.87;102196.00;5115484;28;20106;-36
2021/10/12 05:13:20;;;;;;;17.77;3.97;;;;;;;9.74;99.99;102183.66;5115294;28;20039;-36
2021/10/12 05:15:46;;;;;;;8.52;2.90;;;;;;;9.67;99.96;102161.16;5115847;28;20030;-37
2021/10/12 05:18:18;;;;;;;7.28;2.80;;;;;;;9.77;99.61;102184.09;5115196;28;20031;-36
2021/10/12 05:20:44;;;;;;;11.95;3.15;;;;;;;9.78;100.00;102179.53;5115414;28;20059;-36
2021/10/12 05:23:09;;;;;;;12.93;3.97;;;;;;;9.67;100.00;102167.38;5115024;28;20055;-36
2021/10/12 05:25:35;;;;;;;13.00;3.58;;;;;;;9.63;100.00;102149.06;5115731;28;20031;-36
2021/10/12 05:28:01;;;;;;;13.38;3.83;;;;;;;9.76;100.00;102178.88;5115743;28;20023;-36
2021/10/12 05:30:27;;;;;;;13.55;4.65;;;;;;;9.78;100.00;102180.38;5115151;28;20042;-36
2021/10/12 05:32:52;;;;;;;13.30;4.33;;;;;;;9.67;100.00;102159.28;5115645;28;20503;-36
2021/10/12 05:35:17;;;;;;;9.30;3.60;;;;;;;9.63;100.00;102149.88;5114812;28;20103;-36
2021/10/12 05:37:43;;;;;;;9.53;3.77;;;;;;;9.71;100.00;102162.41;5115627;28;20938;-36
2021/10/12 05:40:09;;;;;;;8.90;3.57;;;;;;;9.80;100.00;102180.16;5115010;28;20409;-36
2021/10/12 05:42:34;;;;;;;10.88;3.63;;;;;;;9.81;100.00;102171.06;5114819;28;20034;-36
2021/10/12 05:45:00;;;;;;;9.40;3.40;;;;;;;9.81;100.00;102168.34;5114836;28;20020;-36
2021/10/12 05:47:25;;;;;;;7.20;3.60;;;;;;;9.65;100.00;102150.50;5114845;28;20024;-36
2021/10/12 05:49:50;;;;;;;9.93;4.30;;;;;;;9.79;100.00;102173.09;5114497;28;20054;-36
2021/10/12 05:52:19;;;;;;;13.67;3.97;;;;;;;9.84;100.00;102170.66;5115176;28;20016;-36
2021/10/12 05:54:50;;;;;;;9.65;3.90;;;;;;;9.77;100.00;102148.16;5114807;28;20043;-36
2021/10/12 05:57:35;;;;;;;9.52;4.45;;;;;;;9.80;100.00;102153.16;5114846;28;20019;-36
2021/10/12 06:00:00;;;;;;;8.55;4.00;;;;;;;9.86;100.00;102149.69;5114883;28;20054;-37
2021/10/12 06:02:26;;;;;;;7.45;4.22;;;;;;;9.89;100.00;102156.56;5114174;28;20066;-36
2021/10/12 06:04:51;;;;;;;9.70;3.83;;;;;;;9.90;100.00;102150.13;5114243;28;20023;-36
2021/10/12 06:07:16;;;;;;;12.67;4.77;;;;;;;9.80;100.00;102139.63;5115120;28;20020;-36
2021/10/12 06:09:41;;;;;;;10.17;4.53;;;;;;;9.88;100.00;102146.78;5114995;28;20043;-36
2021/10/12 06:12:07;;;;;;;14.83;4.77;;;;;;;9.87;100.00;102145.13;5114228;28;20023;-36
2021/10/12 06:14:32;;;;;;;11.60;4.50;;;;;;;9.79;100.00;102129.88;5114705;28;20019;-37
2021/10/12 06:16:57;;;;;;;13.40;4.10;;;;;;;9.82;100.00;102136.75;5114258;28;20333;-36
2021/10/12 06:19:23;;;;;;;10.50;5.27;;;;;;;9.89;100.00;102134.94;5114866;28;20546;-36
2021/10/12 06:21:49;;;;;;;11.40;4.33;;;;;;;9.94;100.00;102143.28;5115200;28;20479;-36
2021/10/12 06:24:14;;;;;;;17.42;5.38;;;;;;;9.90;100.00;102134.75;5114330;28;20059;-36
2021/10/12 06:26:40;;;;;;;12.63;5.03;;;;;;;9.94;100.00;102138.72;5115181;28;20103;-36
2021/10/12 06:29:05;;;;;;;11.10;5.13;;;;;;;9.96;100.00;102136.69;5115077;28;20019;-36
2021/10/12 06:31:31;;;;;;;9.97;4.53;;;;;;;9.94;100.00;102133.31;5114361;28;20432;-36
2021/10/12 06:33:56;;;;;;;11.75;4.97;;;;;;;9.94;100.00;102130.63;5114424;28;20019;-36
2021/10/12 06:36:22;;;;;;;10.50;5.10;;;;;;;9.97;100.00;102146.44;5113998;28;20448;-36
2021/10/12 06:38:47;;;;;;;11.00;5.73;;;;;;;9.98;100.00;102141.88;5114120;28;20126;-36
2021/10/12 06:41:12;;;;;;;13.17;5.53;;;;;;;9.89;100.00;102113.31;5114362;28;20288;-36
2021/10/12 06:43:37;;;;;;;11.20;6.63;;;;;;;9.98;100.00;102125.66;5114157;28;20375;-36
2021/10/12 06:46:03;;;;;;;10.00;5.77;;;;;;;9.98;100.00;102122.97;5114193;28;20034;-36
2021/10/12 06:48:28;;;;;;;11.20;6.23;;;;;;;9.87;100.00;102102.72;5114614;28;20020;-36
2021/10/12 06:50:53;;;;;;;9.40;6.03;;;;;;;9.99;100.00;102114.66;5114242;28;20027;-36
2021/10/12 06:53:19;;;;;;;10.20;6.23;;;;;;;9.93;100.00;102101.09;5113731;28;20446;-36
2021/10/12 06:55:44;;;;;;;13.07;7.27;;;;;;;9.99;100.00;102113.81;5113936;28;20026;-36
2021/10/12 06:58:10;;;;;;;15.47;7.33;;;;;;;9.98;100.00;102110.28;5096455;28;20410;-36
2021/10/12 07:00:36;;;;;;;12.77;6.75;;;;;;;9.99;100.00;102111.94;5114698;28;20020;-36
2021/10/12 07:03:01;;;;;;;13.05;7.07;;;;;;;9.97;100.00;102113.19;5113958;28;20027;-36
2021/10/12 07:05:26;;;;;;;14.50;7.90;;;;;;;9.79;100.00;102078.53;5114194;28;20106;-36
2021/10/12 07:07:52;;;;;;;11.47;6.33;;;;;;;10.01;100.00;102112.59;5114461;28;20020;-36
2021/10/12 07:10:17;;;;;;;15.00;7.30;;;;;;;10.03;100.00;102107.81;5113855;28;20367;-36
2021/10/12 07:12:43;;;;;;;14.37;7.47;;;;;;;9.96;100.00;102085.34;5113756;28;20054;-36
2021/10/12 07:15:09;;;;;;;14.15;6.90;;;;;;;10.02;100.00;102099.94;5114659;28;20020;-36
2021/10/12 07:17:34;;;;;;;;;;;;;;;10.14;100.00;102097.50;5114452;28;20038;-36
2021/10/12 07:20:00;;;;;;;16.02;7.22;;;;;;;10.10;100.00;102098.94;5114289;28;19908;-36
2021/10/12 07:22:25;;;;;;;11.60;6.60;;;;;;;10.12;100.00;102099.59;5114600;28;20027;-36
2021/10/12 07:24:51;;;;;;;13.10;6.50;;;;;;;10.10;100.00;102090.81;5113421;28;20027;-36
2021/10/12 07:27:17;;;;;;;12.85;7.72;;;;;;;10.10;100.00;102091.66;5114014;28;20409;-36
2021/10/12 07:29:45;;;;;;;11.95;7.38;;;;;;;10.15;100.00;102088.34;5116375;28;20027;-36
2021/10/12 07:32:11;;;;;;;16.02;7.75;;;;;;;10.17;100.00;102099.81;5118378;28;20057;-36
2021/10/12 07:34:37;;;;;;;15.50;7.65;;;;;;;10.18;100.00;102087.97;5117542;28;20039;-36
2021/10/12 07:37:02;;;;;;;14.27;8.50;;;;;;;10.20;100.00;102083.19;5117788;28;20149;-36
2021/10/12 07:39:28;;;;;;;16.27;8.17;;;;;;;10.14;100.00;102087.53;5117552;28;20398;-36
2021/10/12 07:41:53;;;;;;;21.57;8.63;;;;;;;10.24;100.00;102092.59;5117551;28;20066;-36
2021/10/12 07:44:18;;;;;;;14.53;8.30;;;;;;;10.25;100.00;102094.31;5117697;28;20020;-36
2021/10/12 07:46:44;;;;;;;19.93;9.07;;;;;;;10.26;100.00;102085.16;5118062;28;20102;-36
2021/10/12 07:49:09;;;;;;;18.83;8.37;;;;;;;10.17;100.00;102070.91;5117369;28;20478;-36
2021/10/12 07:51:34;;;;;;;19.73;9.07;;;;;;;10.28;100.00;102081.19;5118106;28;20082;-36
2021/10/12 07:54:01;;;;;;;16.63;8.53;;;;;;;10.22;100.00;102071.16;5117459;28;20428;-36
2021/10/12 07:56:36;;;;;;;17.98;8.40;;;;;;;10.24;100.00;102062.88;5117493;28;20448;-36
2021/10/12 07:59:05;;;;;;;15.32;9.25;;;;;;;10.38;100.00;102083.53;5117508;28;20026;-36
2021/10/12 08:01:32;;;;;;;17.25;9.10;;;;;;;10.41;100.00;102077.75;5117663;28;20504;-36
2021/10/12 08:03:57;;;;;;;20.08;8.95;;;;;;;10.50;100.00;102081.13;5117003;28;20028;-36
2021/10/12 08:06:22;;;;;;;17.13;9.43;;;;;;;10.46;100.00;102058.22;5117070;28;20045;-36
2021/10/12 08:08:47;;;;;;;15.77;8.90;;;;;;;10.62;100.00;102074.09;5116773;28;20016;-36
2021/10/12 08:11:16;;;;;;;18.53;8.70;;;;;;;10.60;100.00;102059.13;5117618;28;20034;-36
2021/10/12 08:13:41;;;;;;;14.20;8.75;;;;;;;10.64;100.00;102057.66;5117194;28;20040;-36
2021/10/12 08:16:09;;;;;;;14.03;8.70;;;;;;;10.74;100.00;102056.28;5116841;28;20413;-36
2021/10/12 08:18:35;;;;;;;15.85;9.05;;;;;;;10.69;100.00;102047.09;5116750;28;20040;-36
2021/10/12 08:21:01;;;;;;;17.57;8.67;;;;;;;10.85;100.00;102060.25;5117344;28;20051;-36
2021/10/12 08:23:26;;;;;;;14.43;8.35;;;;;;;10.79;100.00;102040.25;5116966;28;20032;-36
2021/10/12 08:25:51;;;;;;;14.35;8.38;;;;;;;10.92;100.00;102055.69;5116723;28;20505;-36
2021/10/12 08:28:17;;;;;;;19.93;9.10;;;;;;;10.97;100.00;102046.94;5116873;28;20024;-36
2021/10/12 08:30:43;;;;;;;14.80;7.83;;;;;;;10.94;100.00;102034.69;5116277;28;20027;-36
2021/10/12 08:33:08;;;;;;;17.10;7.75;;;;;;;11.03;100.00;102038.03;5116186;28;20370;-36
2021/10/12 08:35:33;;;;;;;18.23;8.17;;;;;;;11.09;100.00;102046.16;5116458;28;20106;-36
2021/10/12 08:37:59;;;;;;;16.50;8.67;;;;;;;11.16;100.00;102031.78;5115998;28;20483;-36
2021/10/12 08:40:24;;;;;;;19.63;8.13;;;;;;;11.04;100.00;102010.75;5116067;28;20452;-36
2021/10/12 08:42:52;;;;;;;16.37;8.23;;;;;;;11.19;100.00;102024.09;5116845;28;20062;-36
2021/10/12 08:45:22;;;;;;;14.07;7.25;;;;;;;11.35;100.00;102041.81;5116457;28;20359;-36
2021/10/12 08:47:49;;;;;;;17.88;7.47;;;;;;;11.41;100.00;102034.72;5116510;28;20099;-36
2021/10/12 08:50:19;;;;;;;17.88;7.75;;;;;;;11.49;100.00;102037.25;5116233;28;20031;-36
2021/10/12 08:52:45;;;;;;;17.90;7.35;;;;;;;11.46;100.00;102022.22;5098103;28;20038;-35
2021/10/12 08:55:11;;;;;;;;;;;;;;;11.67;100.00;102025.78;5116522;28;20031;-35
2021/10/12 08:57:39;;;;;;;15.40;6.85;;;;;;;11.85;100.00;102021.41;5115927;28;20250;-35
2021/10/12 09:00:10;;;;;;;16.88;6.45;;;;;;;12.01;100.00;102019.31;5115934;28;20024;-35
2021/10/12 09:05:59;;;;;;;13.80;5.28;;;;;;;12.10;100.00;102018.88;5115645;28;20032;-35
2021/10/12 09:08:27;;;;;;;12.98;4.05;;;;;;;12.03;100.00;102009.91;5116344;28;20473;-35
2021/10/12 09:10:54;;;;;;;12.70;4.40;;;;;;;11.99;100.00;102011.38;5115721;28;20072;-35
2021/10/12 09:13:19;;;;;;;12.63;3.88;;;;;;;12.05;100.00;102004.28;5116014;28;20043;-35
2021/10/12 09:16:11;;;;;;;16.30;3.87;;;;;;;12.14;100.00;102004.88;5116229;28;20060;-35
2021/10/12 09:18:45;;;;;;;14.07;3.72;;;;;;;12.13;100.00;102012.19;5013011;28;20285;-35
2021/10/12 09:21:35;;;;;;;11.25;3.67;;;;;;;12.12;100.00;102005.09;5013316;28;20045;-36
2021/10/12 09:24:01;;;;;;;11.63;3.72;;;;;;;12.13;100.00;102004.03;5012384;28;20037;-36
2021/10/12 09:26:32;;;;;;;13.00;4.00;;;;;;;12.16;100.00;102006.34;5012942;28;20026;-36
2021/10/12 09:28:59;;;;;;;17.33;4.07;;;;;;;12.23;100.00;102006.31;5010841;28;20502;-36
2021/10/12 09:31:36;;;;;;;13.90;4.25;;;;;;;12.33;100.00;102001.28;5010538;28;20040;-36
2021/10/12 09:34:04;;;;;;;10.90;3.92;;;;;;;12.36;100.00;101998.97;4993403;28;20565;-36
2021/10/12 09:36:43;;;;;;;14.60;5.45;;;;;;;12.42;100.00;101989.13;4993130;28;20134;-36
2021/10/12 09:39:14;;;;;;;11.60;4.78;;;;;;;12.47;99.48;101992.03;4993109;28;20038;-36
2021/10/12 09:41:44;;;;;;;9.68;3.33;;;;;;;12.49;99.30;101994.53;4993020;28;20036;-36
2021/10/12 09:44:17;;;;;;;13.82;4.07;;;;;;;12.43;99.23;101990.78;4992560;28;20027;-36
2021/10/12 09:46:47;;;;;;;12.10;4.18;;;;;;;12.51;99.16;101995.97;4993314;28;20463;-36
2021/10/12 09:49:18;;;;;;;12.60;3.85;;;;;;;12.54;99.28;101987.41;4992872;28;20038;-36
2021/10/12 09:52:00;;;;;;;12.20;4.10;;;;;;;12.60;99.09;101996.56;4992465;28;20590;-36
2021/10/12 09:54:31;;;;;;;12.15;3.90;;;;;;;12.58;98.98;101987.81;4996770;28;20030;-36
2021/10/12 09:56:58;;;;;;;12.27;4.38;;;;;;;12.50;98.26;101985.34;5094117;28;20020;-36
2021/10/12 09:59:24;;;;;;;11.85;3.90;;;;;;;12.48;98.60;101977.41;5094293;28;20084;-36
2021/10/12 10:01:52;;;;;;;13.77;4.38;;;;;;;12.45;99.00;101974.31;5094921;28;20027;-36
2021/10/12 10:04:19;;;;;;;16.27;4.47;;;;;;;12.37;99.36;101959.94;5093917;28;20016;-36
2021/10/12 10:06:49;;;;;;;14.73;4.65;;;;;;;12.53;99.88;101969.44;5094667;28;20028;-36
2021/10/12 10:09:18;;;;;;;15.02;4.10;;;;;;;12.60;99.50;101958.59;5094046;28;20031;-36
2021/10/12 10:11:44;;;;;;;15.00;4.53;;;;;;;12.61;98.92;101947.50;5094283;28;20024;-36
2021/10/12 10:14:12;;;;;;;12.13;4.63;;;;;;;12.68;99.12;101943.91;5093778;28;20075;-36
2021/10/12 10:16:39;;;;;;;14.77;4.80;;;;;;;12.77;99.61;101948.03;5094743;28;20540;-36
2021/10/12 10:19:08;;;;;;;12.73;4.68;;;;;;;12.87;99.73;101951.94;5093980;28;20024;-36
2021/10/12 10:21:41;;;;;;;20.48;5.28;;;;;;;12.96;99.40;101965.25;5094214;28;20511;-36
2021/10/12 10:24:19;;;;;;;15.07;4.43;;;;;;;12.92;99.34;101967.56;5093889;28;20031;-36
2021/10/12 10:26:44;;;;;;;11.80;4.05;;;;;;;12.87;99.96;102000.78;5093842;28;20173;-36
2021/10/12 10:29:28;;;;;;;15.70;4.10;;;;;;;12.67;100.00;101980.25;5093920;28;20111;-36
2021/10/12 10:32:01;;;;;;;7.78;2.53;;;;;;;12.39;100.00;101967.84;5094736;28;20036;-36
2021/10/12 10:34:29;;;;;;;3.20;0.85;;;;;;;12.10;98.59;101961.94;5093842;28;20072;-36
2021/10/12 10:37:16;;;;;;;1.30;0.68;;;;;;;11.93;98.26;101970.75;5094278;28;20104;-36
2021/10/12 10:39:46;;;;;;;2.70;0.60;;;;;;;11.51;96.76;101948.47;5094402;28;20081;-35
2021/10/12 10:42:27;;;;;;;3.70;0.80;;;;;;;11.53;98.88;101968.91;5093872;28;20020;-36
2021/10/12 10:44:56;;;;;;;1.70;0.40;;;;;;;11.32;98.18;101969.09;5094217;28;20356;-36
2021/10/12 10:47:40;;;;;;;1.17;0.40;;;;;;;11.14;98.57;101949.97;5094441;28;20020;-36
2021/10/12 10:50:12;;;;;;;1.33;0.40;;;;;;;11.19;99.53;101961.84;5093614;28;20028;-36
2021/10/12 10:52:45;;;;;;;1.70;0.45;;;;;;;11.13;100.00;101940.19;5093683;28;20525;-36
2021/10/12 10:55:12;;;;;;;3.53;0.40;;;;;;;11.29;100.00;101950.59;5093972;28;20012;-36
2021/10/12 10:57:38;;;;;;;1.05;0.50;;;;;;;11.31;100.00;101948.50;5093659;28;20016;-36
2021/10/12 11:00:16;;;;;;;4.85;0.73;;;;;;;11.44;100.00;101936.81;5093324;28;20061;-36
2021/10/12 11:02:46;;;;;;;3.88;0.70;;;;;;;11.71;100.00;101943.88;5093370;28;20063;-36
2021/10/12 11:05:36;;;;;;;2.38;0.90;;;;;;;11.88;100.00;101948.88;5096771;28;20020;-36
2021/10/12 11:08:07;;;;;;;3.70;0.90;;;;;;;11.90;100.00;101947.59;5098400;28;20348;-36
2021/10/12 11:10:32;;;;;;;4.70;0.85;;;;;;;11.95;100.00;101939.66;5097470;28;20035;-36
2021/10/12 11:12:58;;;;;;;3.25;0.85;;;;;;;11.91;99.79;101933.03;5097710;28;20048;-36
2021/10/12 11:15:23;;;;;;;4.57;0.90;;;;;;;12.05;100.00;101944.63;5097760;28;20443;-36
2021/10/12 11:18:04;;;;;;;5.78;1.17;;;;;;;12.16;100.00;101941.28;5111085;28;20467;-36
2021/10/12 11:20:41;;;;;;;3.53;0.90;;;;;;;12.07;100.00;101924.41;5118406;28;20032;-36
2021/10/12 11:23:08;;;;;;;3.25;1.23;;;;;;;12.29;100.00;101943.91;5117775;28;20053;-36
2021/10/12 11:25:33;;;;;;;3.67;1.10;;;;;;;12.29;99.98;101941.19;5117550;28;20024;-36